Time;durP1;ratioP1;P1;durP2;ratioP2;P2;SDS_P1;SDS_P2;PMS_P1;PMS_P2;Temp;Humidity;BMP_temperature;BMP_pressure;BME280_temperature;BME280_humidity;BME280_pressure;Samples;Min_cycle;Max_cycle;Signal;HPM_P1;HPM_P2
2020/02/22 00:02:16;;;;;;;5;2;;;;;;;5.93;56.34766;970.5287;;;;
2020/02/22 00:04:41;;;;;;;5.6;1.9;;;;;;;5.84;56.5293;970.5532;;;;
2020/02/22 00:07:06;;;;;;;5.1;1.8;;;;;;;5.93;56.60938;970.5848;;;;
2020/02/22 00:09:31;;;;;;;4.3;1.9;;;;;;;5.88;56.36426;970.5605;;;;
2020/02/22 00:11:56;;;;;;;3.9;1.7;;;;;;;5.92;56.03906;970.5681;;;;
2020/02/22 00:14:21;;;;;;;4.7;1.8;;;;;;;6.11;55.36816;970.6378;;;;
2020/02/22 00:16:47;;;;;;;4.6;1.7;;;;;;;6.14;55.29199;970.6201;;;;
2020/02/22 00:19:12;;;;;;;4.4;2;;;;;;;5.98;56.20605;970.5364;;;;
2020/02/22 00:21:37;;;;;;;4.4;1.8;;;;;;;5.98;57.01367;970.5172;;;;
2020/02/22 00:24:02;;;;;;;4.4;1.8;;;;;;;5.81;55.875;970.4576;;;;
2020/02/22 00:26:27;;;;;;;4.2;1.6;;;;;;;5.74;56.40234;970.4222;;;;
2020/02/22 00:28:52;;;;;;;5;1.9;;;;;;;5.82;56.58398;970.3558;;;;
2020/02/22 00:31:17;;;;;;;4.2;1.8;;;;;;;5.9;57.43652;970.3502;;;;
2020/02/22 00:33:42;;;;;;;5;2.1;;;;;;;5.92;56.69922;970.2847;;;;
2020/02/22 00:36:07;;;;;;;5;2.1;;;;;;;5.84;56.80176;970.1973;;;;
2020/02/22 00:38:32;;;;;;;4.5;1.9;;;;;;;5.84;56.74512;970.1747;;;;
2020/02/22 00:40:57;;;;;;;5.1;2;;;;;;;5.77;56.45117;970.1156;;;;
2020/02/22 00:43:22;;;;;;;4.4;1.8;;;;;;;5.79;56.86328;970.1395;;;;
2020/02/22 00:45:48;;;;;;;6.2;2.2;;;;;;;5.78;56.29297;970.194;;;;
2020/02/22 00:48:13;;;;;;;4.1;1.7;;;;;;;5.87;56.80664;970.1714;;;;
2020/02/22 00:50:38;;;;;;;4.9;1.9;;;;;;;5.97;56.61523;970.2104;;;;
2020/02/22 00:53:03;;;;;;;4.1;1.8;;;;;;;5.77;57.59082;970.2205;;;;
2020/02/22 00:55:28;;;;;;;4.5;2;;;;;;;5.54;57.40039;970.1293;;;;
2020/02/22 00:57:53;;;;;;;4.2;1.8;;;;;;;5.61;57.9668;970.1017;;;;
2020/02/22 01:00:18;;;;;;;5.5;2.1;;;;;;;5.67;57.24707;970.0912;;;;
2020/02/22 01:02:43;;;;;;;5.2;2.1;;;;;;;5.55;57.80078;970.1274;;;;
2020/02/22 01:05:08;;;;;;;5.1;2;;;;;;;5.55;58.49414;970.1242;;;;
2020/02/22 01:07:33;;;;;;;4.2;1.9;;;;;;;5.53;58.25195;970.1213;;;;
2020/02/22 01:09:58;;;;;;;5.2;1.9;;;;;;;5.5;58.56543;970.1064;;;;
2020/02/22 01:12:23;;;;;;;6;2.2;;;;;;;5.51;59.47656;970.1324;;;;
2020/02/22 01:14:49;;;;;;;7.2;2.2;;;;;;;5.49;58.97363;970.1561;;;;
2020/02/22 01:17:14;;;;;;;4.8;2.1;;;;;;;5.36;58.59082;970.1336;;;;
2020/02/22 01:19:39;;;;;;;4.6;2.1;;;;;;;5.38;59.01563;970.178;;;;
2020/02/22 01:22:04;;;;;;;5;2.1;;;;;;;5.31;58.2666;970.1358;;;;
2020/02/22 01:24:29;;;;;;;4.6;2.1;;;;;;;5.26;58.25977;970.1479;;;;
2020/02/22 01:29:19;;;;;;;5;2.1;;;;;;;5.31;58.67578;970.1707;;;;
2020/02/22 01:31:44;;;;;;;4.7;2.3;;;;;;;5.3;60.0166;970.2881;;;;
2020/02/22 01:34:09;;;;;;;4.5;2.1;;;;;;;5.3;60.0166;970.3203;;;;
2020/02/22 01:36:34;;;;;;;4;1.8;;;;;;;5.28;61.27539;970.2358;;;;
2020/02/22 01:38:59;;;;;;;3.8;1.9;;;;;;;5.2;61.05957;970.1658;;;;
2020/02/22 01:41:25;;;;;;;5.7;2.2;;;;;;;5.08;62.46387;970.1058;;;;
2020/02/22 01:43:50;;;;;;;5.2;2;;;;;;;5.1;61.2959;970.0391;;;;
2020/02/22 01:46:15;;;;;;;5.3;2;;;;;;;5.04;61.40039;970.0095;;;;
2020/02/22 01:48:40;;;;;;;4.5;1.9;;;;;;;5.11;60.55664;969.9852;;;;
2020/02/22 01:51:05;;;;;;;6.2;2.2;;;;;;;5.06;62.45898;969.9662;;;;
2020/02/22 01:53:30;;;;;;;5.2;1.9;;;;;;;5.09;61.57715;969.897;;;;
2020/02/22 01:55:55;;;;;;;5.5;2;;;;;;;5.03;61.41016;969.9437;;;;
2020/02/22 01:58:20;;;;;;;6;2.3;;;;;;;4.94;63.39648;969.942;;;;
2020/02/22 02:00:45;;;;;;;6;2.2;;;;;;;4.91;62.34668;969.9191;;;;
2020/02/22 02:03:11;;;;;;;5;2.2;;;;;;;4.9;63.75488;969.9242;;;;
2020/02/22 02:05:40;;;;;;;5;2.2;;;;;;;4.88;60.83203;969.8107;;;;
2020/02/22 02:08:05;;;;;;;5.1;2;;;;;;;4.89;60.71973;969.7516;;;;
2020/02/22 02:10:30;;;;;;;6.9;2.1;;;;;;;4.88;61.19531;969.7085;;;;
2020/02/22 02:12:55;;;;;;;4.7;2;;;;;;;4.88;60.76367;969.6994;;;;
2020/02/22 02:15:20;;;;;;;5.7;2;;;;;;;4.87;60.5918;969.6696;;;;
2020/02/22 02:17:45;;;;;;;4.8;2.1;;;;;;;4.84;60.22461;969.5978;;;;
2020/02/22 02:20:11;;;;;;;4.2;2.3;;;;;;;4.88;60.02539;969.6682;;;;
2020/02/22 02:22:36;;;;;;;4.5;2.2;;;;;;;4.83;60.74512;969.6755;;;;
2020/02/22 02:25:01;;;;;;;5.7;2;;;;;;;4.81;60.65137;969.6364;;;;
2020/02/22 02:27:26;;;;;;;6;1.8;;;;;;;4.81;60.67383;969.7316;;;;
2020/02/22 02:29:51;;;;;;;5.8;2.2;;;;;;;4.75;60.85938;969.6788;;;;
2020/02/22 02:32:16;;;;;;;4.4;2;;;;;;;4.83;62.57324;969.6376;;;;
2020/02/22 02:36:50;;;;;;;4.8;1.8;;;;;;;4.77;61.81543;969.5995;;;;
2020/02/22 02:39:15;;;;;;;5.7;2.3;;;;;;;4.68;62.65332;969.5385;;;;
2020/02/22 02:41:40;;;;;;;4.7;2;;;;;;;4.63;63.04492;969.5227;;;;
2020/02/22 02:44:05;;;;;;;5.6;1.9;;;;;;;4.75;62.45996;969.5288;;;;
2020/02/22 02:46:40;;;;;;;5.3;2.1;;;;;;;4.66;63.59277;969.4984;;;;
2020/02/22 02:49:06;;;;;;;4.8;2.2;;;;;;;4.57;63.39746;969.527;;;;
2020/02/22 02:51:31;;;;;;;4.5;2;;;;;;;4.5;65.02051;969.4939;;;;
2020/02/22 02:53:56;;;;;;;4.1;1.9;;;;;;;4.5;64.33984;969.502;;;;
2020/02/22 02:56:21;;;;;;;5.1;2;;;;;;;4.41;65.51758;969.4347;;;;
2020/02/22 02:58:46;;;;;;;5.5;2.4;;;;;;;4.38;65.02539;969.3474;;;;
2020/02/22 03:01:11;;;;;;;4.7;2.1;;;;;;;4.36;65.56738;969.4034;;;;
2020/02/22 03:03:36;;;;;;;4;2;;;;;;;4.38;65.97852;969.3505;;;;
2020/02/22 03:06:01;;;;;;;5.9;2.2;;;;;;;4.15;66.93066;969.3412;;;;
2020/02/22 03:08:26;;;;;;;3.5;2.1;;;;;;;4.19;66.42578;969.3914;;;;
2020/02/22 03:10:53;;;;;;;5;2.4;;;;;;;4.18;66.18652;969.4161;;;;
2020/02/22 03:13:18;;;;;;;5.4;2.4;;;;;;;4.19;65.31641;969.4503;;;;
2020/02/22 03:15:43;;;;;;;5.3;2.4;;;;;;;4.21;65.39844;969.4336;;;;
2020/02/22 03:18:08;;;;;;;6.4;2.7;;;;;;;4.22;65.7627;969.4594;;;;
2020/02/22 03:20:36;;;;;;;6.3;2.6;;;;;;;4.1;65.95801;969.4714;;;;
2020/02/22 03:23:00;;;;;;;5.7;2.4;;;;;;;4.11;66.33398;969.5452;;;;
2020/02/22 03:25:26;;;;;;;5.5;2.3;;;;;;;4.1;66.37793;969.5894;;;;
2020/02/22 03:27:51;;;;;;;6;2.2;;;;;;;4;65.84082;969.5985;;;;
2020/02/22 03:30:16;;;;;;;5.8;2.3;;;;;;;3.96;66.29883;969.574;;;;
2020/02/22 03:32:41;;;;;;;5.5;2.2;;;;;;;3.87;66.1377;969.5488;;;;
2020/02/22 03:35:06;;;;;;;5.8;2.3;;;;;;;3.92;66.22363;969.4842;;;;
2020/02/22 03:37:31;;;;;;;4.8;2.3;;;;;;;3.95;66.19531;969.4931;;;;
2020/02/22 03:39:56;;;;;;;5.5;2.4;;;;;;;3.94;65.77441;969.4272;;;;
2020/02/22 03:42:21;;;;;;;4.8;2.2;;;;;;;3.94;65.62793;969.3514;;;;
2020/02/22 03:44:47;;;;;;;4.5;2.1;;;;;;;4;65.22949;969.3195;;;;
2020/02/22 03:47:12;;;;;;;4.2;2;;;;;;;4.06;65.25;969.2609;;;;
2020/02/22 03:49:37;;;;;;;7.1;2.3;;;;;;;4.16;65.38867;969.289;;;;
2020/02/22 03:52:02;;;;;;;4.5;2.1;;;;;;;4.17;64.71094;969.3352;;;;
2020/02/22 03:54:27;;;;;;;4.4;1.8;;;;;;;4.16;65.01563;969.3518;;;;
2020/02/22 03:56:56;;;;;;;5.3;2.3;;;;;;;4.31;64.90137;969.3842;;;;
2020/02/22 03:59:18;;;;;;;6.9;2;;;;;;;4.28;64.875;969.3566;;;;
2020/02/22 04:02:29;;;;;;;5.5;2.1;;;;;;;4.29;64.38867;969.3825;;;;
2020/02/22 04:04:54;;;;;;;4.7;1.8;;;;;;;4.29;65.54492;969.3809;;;;
2020/02/22 04:07:19;;;;;;;5.4;2.2;;;;;;;4.35;64.63574;969.3884;;;;
2020/02/22 04:09:44;;;;;;;4.1;2.1;;;;;;;4.35;64.89648;969.3642;;;;
2020/02/22 04:12:09;;;;;;;5.5;2;;;;;;;4.37;64.16113;969.3045;;;;
2020/02/22 04:17:00;;;;;;;5.8;2.2;;;;;;;4.27;64.55566;969.3298;;;;
2020/02/22 04:19:25;;;;;;;5.6;2.4;;;;;;;4.33;65.03027;969.4028;;;;
2020/02/22 04:21:50;;;;;;;6.8;2.3;;;;;;;4.25;64.55273;969.4899;;;;
2020/02/22 04:24:15;;;;;;;5.9;2.4;;;;;;;4.2;64.89648;969.5815;;;;
2020/02/22 04:26:58;;;;;;;5.6;2.4;;;;;;;4.12;65.36133;969.6033;;;;
2020/02/22 04:29:24;;;;;;;5.9;2.3;;;;;;;4.11;65.42871;969.719;;;;
2020/02/22 04:31:49;;;;;;;6.3;2.2;;;;;;;4.08;65.52441;969.7904;;;;
2020/02/22 04:34:14;;;;;;;5.5;2.2;;;;;;;4.08;65.61523;969.813;;;;
2020/02/22 04:36:39;;;;;;;4.9;2.2;;;;;;;4.05;66.39258;969.8998;;;;
2020/02/22 04:39:04;;;;;;;7;2.5;;;;;;;4.07;66.65723;969.9437;;;;
2020/02/22 04:41:29;;;;;;;4.9;2.2;;;;;;;4.08;66.19238;970.0023;;;;
2020/02/22 04:43:54;;;;;;;5.6;2.4;;;;;;;3.9;66.4043;969.9489;;;;
2020/02/22 04:46:19;;;;;;;5.8;2.3;;;;;;;3.95;67.09082;969.8083;;;;
2020/02/22 04:48:44;;;;;;;6.5;2.2;;;;;;;3.99;67.6416;969.7816;;;;
2020/02/22 04:51:09;;;;;;;6.6;2.6;;;;;;;3.92;68.04883;969.7584;;;;
2020/02/22 04:53:34;;;;;;;5.9;2.4;;;;;;;3.86;66.78223;969.7681;;;;
2020/02/22 04:56:00;;;;;;;4.8;2.5;;;;;;;3.87;67.23828;969.806;;;;
2020/02/22 04:58:25;;;;;;;6.3;2.6;;;;;;;3.86;67.50879;969.7249;;;;
2020/02/22 05:00:50;;;;;;;6.3;2.6;;;;;;;3.78;67.64355;969.6811;;;;
2020/02/22 05:03:15;;;;;;;5;2.4;;;;;;;3.75;67.59375;969.7108;;;;
2020/02/22 05:05:41;;;;;;;6.9;2.3;;;;;;;3.84;68.07129;969.6565;;;;
2020/02/22 05:08:06;;;;;;;6.3;2.5;;;;;;;3.87;67.88379;969.6834;;;;
2020/02/22 05:10:31;;;;;;;4.9;2.1;;;;;;;3.9;67.49023;969.6519;;;;
2020/02/22 05:12:56;;;;;;;7.5;2.2;;;;;;;3.86;67.97168;969.6133;;;;
2020/02/22 05:15:21;;;;;;;8;2.4;;;;;;;3.81;69.0957;969.5399;;;;
2020/02/22 05:17:46;;;;;;;6.9;2.4;;;;;;;3.87;68.21094;969.53;;;;
2020/02/22 05:20:11;;;;;;;7;2.3;;;;;;;3.85;67.79004;969.5305;;;;
2020/02/22 05:22:36;;;;;;;7.2;2.3;;;;;;;3.78;67.75684;969.515;;;;
2020/02/22 05:25:01;;;;;;;4.4;2;;;;;;;3.92;67.63086;969.5058;;;;
2020/02/22 05:27:27;;;;;;;5.4;2.2;;;;;;;3.82;68.46484;969.4465;;;;
2020/02/22 05:29:51;;;;;;;4.8;2.2;;;;;;;3.89;68.77051;969.3656;;;;
2020/02/22 05:32:17;;;;;;;5.1;2.1;;;;;;;3.9;68.2041;969.3439;;;;
2020/02/22 05:34:42;;;;;;;7;2.4;;;;;;;3.83;68.15918;969.2508;;;;
2020/02/22 05:37:07;;;;;;;6.5;2.4;;;;;;;3.89;68.16992;969.1301;;;;
2020/02/22 05:39:32;;;;;;;6.4;2.4;;;;;;;3.87;68.54004;968.9738;;;;
2020/02/22 05:41:57;;;;;;;6.9;2.2;;;;;;;3.88;69.08496;968.7629;;;;
2020/02/22 05:44:37;;;;;;;5.6;2.1;;;;;;;3.82;69.12207;968.8039;;;;
2020/02/22 05:46:47;;;;;;;6.5;2.3;;;;;;;3.62;70.77734;968.793;;;;
2020/02/22 05:49:12;;;;;;;6.6;2.6;;;;;;;3.53;70.5;968.8622;;;;
2020/02/22 05:51:38;;;;;;;5.9;2.8;;;;;;;3.49;71.04883;968.9169;;;;
2020/02/22 05:54:03;;;;;;;5;2.5;;;;;;;3.53;70.7041;968.9406;;;;
2020/02/22 05:56:28;;;;;;;7;2.8;;;;;;;3.4;70.86328;968.9999;;;;
2020/02/22 05:58:53;;;;;;;6.9;2.6;;;;;;;3.46;70.97656;969.1496;;;;
2020/02/22 06:01:18;;;;;;;6.1;2.4;;;;;;;3.36;70.51855;969.2336;;;;
2020/02/22 06:03:43;;;;;;;6.9;2.4;;;;;;;3.39;70.93066;969.2211;;;;
2020/02/22 06:06:08;;;;;;;6.5;2.9;;;;;;;3.37;70.72266;969.1914;;;;
2020/02/22 06:08:33;;;;;;;6.5;2.6;;;;;;;3.44;70.90527;969.1486;;;;
2020/02/22 06:10:58;;;;;;;5.8;2.6;;;;;;;3.4;71.00977;969.1601;;;;
2020/02/22 06:13:23;;;;;;;6.6;3;;;;;;;3.42;70.84473;969.2029;;;;
2020/02/22 06:15:48;;;;;;;5.2;2.2;;;;;;;3.49;70.17578;969.189;;;;
2020/02/22 06:18:13;;;;;;;6.7;2.6;;;;;;;3.45;70.53223;969.182;;;;
2020/02/22 06:20:39;;;;;;;6.1;2.6;;;;;;;3.51;70.63184;969.1839;;;;
2020/02/22 06:23:04;;;;;;;7.1;2.2;;;;;;;3.55;70.04004;969.2262;;;;
2020/02/22 06:25:29;;;;;;;8.4;2.3;;;;;;;3.56;70.25684;969.2428;;;;
2020/02/22 06:27:54;;;;;;;7.1;2.4;;;;;;;3.55;70.04004;969.2527;;;;
2020/02/22 06:30:19;;;;;;;7;2.7;;;;;;;3.53;69.86621;969.2764;;;;
2020/02/22 06:32:44;;;;;;;5.6;2.5;;;;;;;3.69;70.87793;969.27;;;;
2020/02/22 06:35:09;;;;;;;5.9;2.6;;;;;;;3.63;70.28027;969.298;;;;
2020/02/22 06:37:34;;;;;;;5.7;2.7;;;;;;;3.69;69.75488;969.248;;;;
2020/02/22 06:39:59;;;;;;;5.5;2.6;;;;;;;3.7;70.12207;969.128;;;;
2020/02/22 06:42:24;;;;;;;6.1;2.5;;;;;;;3.69;70.37988;969.0613;;;;
2020/02/22 06:44:50;;;;;;;6.7;2.6;;;;;;;3.75;70.38965;968.968;;;;
2020/02/22 06:47:15;;;;;;;5.5;2.5;;;;;;;3.72;70.52051;969.0139;;;;
2020/02/22 06:49:40;;;;;;;8.2;2.6;;;;;;;3.71;70.39551;969.0458;;;;
2020/02/22 06:52:05;;;;;;;7.8;2.8;;;;;;;3.78;70.58691;969.1344;;;;
2020/02/22 06:54:30;;;;;;;8.9;2.7;;;;;;;3.84;69.92871;969.1818;;;;
2020/02/22 06:56:55;;;;;;;7.1;2.5;;;;;;;3.81;69.58301;969.2465;;;;
2020/02/22 06:59:28;;;;;;;9.2;2.8;;;;;;;3.91;70.21289;969.2534;;;;
2020/02/22 07:01:53;;;;;;;6.3;2.7;;;;;;;3.83;69.68945;969.3191;;;;
2020/02/22 07:04:18;;;;;;;8;2.6;;;;;;;3.89;69.53027;969.2637;;;;
2020/02/22 07:09:11;;;;;;;6.8;2.4;;;;;;;3.92;69.74805;969.2144;;;;
2020/02/22 07:11:34;;;;;;;6.3;2.5;;;;;;;3.96;69.44922;969.1983;;;;
2020/02/22 07:13:59;;;;;;;5.7;2.4;;;;;;;4;69.61523;969.2654;;;;
2020/02/22 07:16:24;;;;;;;5.1;2.3;;;;;;;4.06;69.10254;969.2372;;;;
2020/02/22 07:18:49;;;;;;;5.6;2.4;;;;;;;4.1;69.35938;969.1359;;;;
2020/02/22 07:21:14;;;;;;;6.4;2.5;;;;;;;4.06;69.56934;969.0932;;;;
2020/02/22 07:23:40;;;;;;;7.2;2.3;;;;;;;4.2;69.0918;969.0779;;;;
2020/02/22 07:26:05;;;;;;;8.6;2.8;;;;;;;4.11;69.31543;969.0258;;;;
2020/02/22 07:28:30;;;;;;;6.5;2.4;;;;;;;4.17;69.75684;969.0036;;;;
2020/02/22 07:30:55;;;;;;;6.5;2.6;;;;;;;4.23;69.00586;969.0636;;;;
2020/02/22 07:33:20;;;;;;;6.6;2.7;;;;;;;4.3;68.81445;969.088;;;;
2020/02/22 07:35:45;;;;;;;7.4;2.5;;;;;;;4.36;68.70996;969.1019;;;;
2020/02/22 07:38:10;;;;;;;6.3;2.1;;;;;;;4.44;68.46191;969.1552;;;;
2020/02/22 07:40:35;;;;;;;9;2.5;;;;;;;4.56;68.68652;969.028;;;;
2020/02/22 07:43:00;;;;;;;8.4;2.4;;;;;;;4.63;67.62988;969.0162;;;;
2020/02/22 07:45:25;;;;;;;7.6;2.3;;;;;;;4.71;67.2998;968.9506;;;;
2020/02/22 07:47:50;;;;;;;7.5;2.6;;;;;;;4.78;67.08594;968.9241;;;;
2020/02/22 07:50:15;;;;;;;5.9;2.3;;;;;;;4.95;66.49902;968.9249;;;;
2020/02/22 07:52:40;;;;;;;8.5;2.4;;;;;;;5.02;66.45313;969.0022;;;;
2020/02/22 07:55:06;;;;;;;9.1;2.6;;;;;;;5.18;65.91992;968.998;;;;
2020/02/22 07:57:31;;;;;;;7.1;2.7;;;;;;;5.2;65.64063;969.0378;;;;
2020/02/22 07:59:56;;;;;;;9.3;2.5;;;;;;;5.34;65.54688;969.0406;;;;
2020/02/22 08:02:21;;;;;;;8;2.2;;;;;;;5.43;65.06152;969.0966;;;;
2020/02/22 08:04:46;;;;;;;9.1;2.3;;;;;;;5.46;65.07715;969.0902;;;;
2020/02/22 08:07:11;;;;;;;6.6;2.5;;;;;;;5.61;64.49805;969.0756;;;;
2020/02/22 08:09:36;;;;;;;5.1;2.2;;;;;;;5.78;64.13477;969.1209;;;;
2020/02/22 08:12:01;;;;;;;6.3;2.4;;;;;;;5.76;64.20215;969.1772;;;;
2020/02/22 08:14:26;;;;;;;7.3;2.2;;;;;;;5.94;63.3623;969.3058;;;;
2020/02/22 08:16:51;;;;;;;4;1.8;;;;;;;6.01;63.42969;969.29;;;;
2020/02/22 08:19:16;;;;;;;5.9;2.1;;;;;;;6.17;62.59961;969.2806;;;;
2020/02/22 08:21:43;;;;;;;6.4;2.4;;;;;;;6.17;62.57813;969.2818;;;;
2020/02/22 08:24:08;;;;;;;5;2;;;;;;;6.35;61.83984;969.2246;;;;
2020/02/22 08:26:33;;;;;;;6.9;2.1;;;;;;;6.46;61.22852;969.2949;;;;
2020/02/22 08:28:58;;;;;;;7.6;2.3;;;;;;;6.45;61.07813;969.3275;;;;
2020/02/22 08:31:23;;;;;;;4.9;2.1;;;;;;;6.49;60.47852;969.2911;;;;
2020/02/22 08:33:48;;;;;;;4.6;2.2;;;;;;;6.63;60.60352;969.2629;;;;
2020/02/22 08:36:13;;;;;;;5.8;2.2;;;;;;;6.73;59.61328;969.2991;;;;
2020/02/22 08:38:38;;;;;;;5.7;2.1;;;;;;;6.79;59.41699;969.3989;;;;
2020/02/22 08:41:03;;;;;;;8.5;2.2;;;;;;;7;58.65723;969.3752;;;;
2020/02/22 08:43:28;;;;;;;3.9;1.7;;;;;;;7.17;58.52051;969.4019;;;;
2020/02/22 08:45:54;;;;;;;4.6;2.2;;;;;;;7.14;58.52832;969.3347;;;;
2020/02/22 08:48:19;;;;;;;4.2;1.8;;;;;;;7.03;58.31836;969.3453;;;;
2020/02/22 08:50:44;;;;;;;5.6;1.7;;;;;;;7.26;58.48633;969.3702;;;;
2020/02/22 08:53:09;;;;;;;4.7;1.7;;;;;;;7.44;57.99609;969.4372;;;;
2020/02/22 08:55:34;;;;;;;4.9;2.2;;;;;;;7.46;57.13184;969.4603;;;;
2020/02/22 08:57:59;;;;;;;5.3;2.3;;;;;;;7.43;56.92285;969.4922;;;;
2020/02/22 09:00:25;;;;;;;4.2;1.8;;;;;;;7.66;56.54102;969.5337;;;;
2020/02/22 09:02:50;;;;;;;4.6;2;;;;;;;7.52;56.81934;969.5489;;;;
2020/02/22 09:05:15;;;;;;;4.6;1.8;;;;;;;7.61;56.88867;969.5759;;;;
2020/02/22 09:07:40;;;;;;;4.5;1.9;;;;;;;7.85;57.40137;969.5764;;;;
2020/02/22 09:10:06;;;;;;;4.9;2.2;;;;;;;7.83;56.67871;969.5203;;;;
2020/02/22 09:12:31;;;;;;;4.9;1.9;;;;;;;7.82;56.86035;969.4639;;;;
2020/02/22 09:14:56;;;;;;;4.6;1.8;;;;;;;7.82;56.61914;969.4678;;;;
2020/02/22 09:17:21;;;;;;;4.5;1.9;;;;;;;7.79;56.76465;969.4235;;;;
2020/02/22 09:19:46;;;;;;;5.2;2.2;;;;;;;7.82;56.26465;969.3105;;;;
2020/02/22 09:22:11;;;;;;;4;1.8;;;;;;;7.86;55.58398;969.3633;;;;
2020/02/22 09:24:37;;;;;;;4.7;1.8;;;;;;;8.09;55.38477;969.4629;;;;
2020/02/22 09:27:02;;;;;;;4.9;2.2;;;;;;;8.07;55.00293;969.5779;;;;
2020/02/22 09:29:27;;;;;;;4.2;1.9;;;;;;;8.08;55.14355;969.6292;;;;
2020/02/22 09:31:52;;;;;;;3.6;1.7;;;;;;;8.11;54.89551;969.6102;;;;
2020/02/22 09:34:17;;;;;;;3.8;1.6;;;;;;;8.34;54.74219;969.6234;;;;
2020/02/22 09:36:42;;;;;;;5.3;1.9;;;;;;;8.25;55.80566;969.6479;;;;
2020/02/22 09:39:08;;;;;;;5.1;2;;;;;;;8.28;53.88574;969.6978;;;;
2020/02/22 09:41:33;;;;;;;4.2;1.7;;;;;;;8.42;53.2168;969.6328;;;;
2020/02/22 09:43:58;;;;;;;3.9;1.7;;;;;;;8.5;52.37891;969.6894;;;;
2020/02/22 09:46:23;;;;;;;3.1;1.6;;;;;;;8.49;52;969.6442;;;;
2020/02/22 09:48:48;;;;;;;5.3;2;;;;;;;8.56;52.03125;969.6474;;;;
2020/02/22 09:51:13;;;;;;;3.3;1.6;;;;;;;8.7;51.6582;969.6383;;;;
2020/02/22 09:53:39;;;;;;;4.4;1.7;;;;;;;8.78;50.31641;969.6469;;;;
2020/02/22 09:56:04;;;;;;;4;1.7;;;;;;;8.86;50.33594;969.6208;;;;
2020/02/22 09:58:29;;;;;;;3.6;1.8;;;;;;;9.04;49.85254;969.6049;;;;
2020/02/22 10:00:54;;;;;;;3.9;1.5;;;;;;;9.15;47.74414;969.6311;;;;
2020/02/22 10:03:19;;;;;;;4.2;1.5;;;;;;;9.25;47.37695;969.7039;;;;
2020/02/22 10:05:44;;;;;;;2.7;1.3;;;;;;;9.24;45.58496;969.6437;;;;
2020/02/22 10:08:09;;;;;;;3.7;1.4;;;;;;;9.22;45.43457;969.5969;;;;
2020/02/22 10:10:34;;;;;;;3;1.5;;;;;;;9.47;44.62207;969.6401;;;;
2020/02/22 10:13:00;;;;;;;3.3;1.6;;;;;;;9.51;44.24707;969.6479;;;;
2020/02/22 10:15:25;;;;;;;2.9;1.3;;;;;;;9.49;44.87695;969.618;;;;
2020/02/22 10:17:50;;;;;;;2.6;1.5;;;;;;;9.68;44.47168;969.6238;;;;
2020/02/22 10:20:15;;;;;;;4.1;1.6;;;;;;;9.72;44.13086;969.6545;;;;
2020/02/22 10:22:40;;;;;;;4.4;1.7;;;;;;;9.65;43.93945;969.6958;;;;
2020/02/22 10:25:05;;;;;;;4.7;1.7;;;;;;;9.6;43.99219;969.739;;;;
2020/02/22 10:27:30;;;;;;;5;1.7;;;;;;;9.76;44.43359;969.6539;;;;
2020/02/22 10:29:55;;;;;;;4.1;1.4;;;;;;;9.77;44.61816;969.6655;;;;
2020/02/22 10:32:20;;;;;;;3.4;1.4;;;;;;;9.83;44.07422;969.7281;;;;
2020/02/22 10:34:45;;;;;;;4.6;1.5;;;;;;;10.06;43.40723;969.6888;;;;
2020/02/22 10:37:10;;;;;;;3.5;1.4;;;;;;;10.01;43.06836;969.7217;;;;
2020/02/22 10:39:36;;;;;;;4.2;1.5;;;;;;;10.1;43.53711;969.7431;;;;
2020/02/22 10:42:01;;;;;;;4.4;1.6;;;;;;;10.23;43.33301;969.7214;;;;
2020/02/22 10:44:26;;;;;;;4.6;1.5;;;;;;;10.16;42.44043;969.7039;;;;
2020/02/22 10:46:51;;;;;;;4.4;1.5;;;;;;;10.35;42.10254;969.7477;;;;
2020/02/22 10:49:16;;;;;;;3.7;1.5;;;;;;;10.21;42.2373;969.7662;;;;
2020/02/22 10:51:42;;;;;;;3.5;1.4;;;;;;;10.25;43.10449;969.7317;;;;
2020/02/22 10:54:07;;;;;;;3.7;1.6;;;;;;;10.37;42.11621;969.6786;;;;
2020/02/22 10:56:32;;;;;;;2.7;1.3;;;;;;;10.45;42.50293;969.7727;;;;
2020/02/22 10:58:57;;;;;;;3.2;1.3;;;;;;;10.41;41.39453;969.7865;;;;
2020/02/22 11:01:22;;;;;;;3;1.3;;;;;;;10.67;41.07324;969.8301;;;;
2020/02/22 11:03:47;;;;;;;3.6;1.4;;;;;;;10.75;40.39063;969.7678;;;;
2020/02/22 11:06:12;;;;;;;2.6;1.3;;;;;;;10.74;40.94238;969.7712;;;;
2020/02/22 11:08:38;;;;;;;3.3;1.4;;;;;;;10.75;41.39258;969.741;;;;
2020/02/22 11:11:03;;;;;;;4.2;1.9;;;;;;;10.8;40.85645;969.8081;;;;
2020/02/22 11:13:28;;;;;;;2.6;1.4;;;;;;;10.78;41.98242;969.728;;;;
2020/02/22 11:15:53;;;;;;;4.2;1.4;;;;;;;10.82;41.67578;969.651;;;;
2020/02/22 11:18:18;;;;;;;3.6;1.3;;;;;;;11.07;41.53809;969.7242;;;;
2020/02/22 11:20:43;;;;;;;3.1;1.6;;;;;;;11.07;41.61914;969.6672;;;;
2020/02/22 11:23:08;;;;;;;2.6;1.3;;;;;;;11.33;41.34375;969.5564;;;;
2020/02/22 11:25:34;;;;;;;2.7;1.4;;;;;;;11.42;41.54883;969.4459;;;;
2020/02/22 11:27:59;;;;;;;3.1;1.4;;;;;;;11.43;41.50391;969.4258;;;;
2020/02/22 11:30:25;;;;;;;2.5;1.3;;;;;;;11.59;39.38477;969.2748;;;;
2020/02/22 11:32:50;;;;;;;3.5;1.4;;;;;;;11.52;38.15625;969.0925;;;;
2020/02/22 11:35:16;;;;;;;3.6;1.4;;;;;;;11.38;38.55859;969.0986;;;;
2020/02/22 11:37:41;;;;;;;3.1;1.5;;;;;;;11.54;38.14551;969.1442;;;;
2020/02/22 11:40:07;;;;;;;2.4;1.3;;;;;;;11.65;37.26758;969.1478;;;;
2020/02/22 11:42:32;;;;;;;3.8;1.5;;;;;;;11.71;36.31445;969.0311;;;;
2020/02/22 11:44:57;;;;;;;3.3;1.3;;;;;;;11.65;35.46777;969.0628;;;;
2020/02/22 11:47:22;;;;;;;3.7;1.5;;;;;;;11.76;35.28027;969.0481;;;;
2020/02/22 11:49:47;;;;;;;4.4;1.2;;;;;;;11.75;35.86816;968.9489;;;;
2020/02/22 11:52:13;;;;;;;3.3;1.4;;;;;;;11.96;34.77734;968.8761;;;;
2020/02/22 11:54:38;;;;;;;2.9;1.4;;;;;;;12.03;34.2168;968.7639;;;;
2020/02/22 11:57:04;;;;;;;2.2;1.1;;;;;;;12.04;33.09668;968.635;;;;
2020/02/22 11:59:29;;;;;;;1.7;1.1;;;;;;;12.27;32.54785;968.5131;;;;
2020/02/22 12:01:54;;;;;;;3.2;1.3;;;;;;;12.29;32.72363;968.4297;;;;
2020/02/22 12:04:19;;;;;;;1.5;0.9;;;;;;;12.32;32.34375;968.4416;;;;
2020/02/22 12:06:44;;;;;;;2.8;1.2;;;;;;;12.47;32.88672;968.3383;;;;
2020/02/22 12:09:09;;;;;;;2.4;1.2;;;;;;;12.54;31.85156;968.1777;;;;
2020/02/22 12:11:34;;;;;;;2.9;1.2;;;;;;;12.48;31.81348;967.993;;;;
2020/02/22 12:13:59;;;;;;;3.5;1.1;;;;;;;12.48;32.00977;968.0298;;;;
2020/02/22 12:16:24;;;;;;;3.7;1.2;;;;;;;12.57;32.41992;967.9863;;;;
2020/02/22 12:18:49;;;;;;;2.8;1.3;;;;;;;12.57;32.97559;967.8398;;;;
2020/02/22 12:21:15;;;;;;;4;1.2;;;;;;;12.59;32.57227;967.6484;;;;
2020/02/22 12:23:40;;;;;;;2.7;1.1;;;;;;;12.58;31.92383;967.6127;;;;
2020/02/22 12:26:06;;;;;;;2.9;1.1;;;;;;;12.55;31.7832;967.4803;;;;
2020/02/22 12:28:31;;;;;;;2.9;1.1;;;;;;;12.65;31.65137;967.4033;;;;
2020/02/22 12:30:56;;;;;;;3.9;1.1;;;;;;;12.61;32.18066;967.3624;;;;
2020/02/22 12:33:21;;;;;;;3.8;1.1;;;;;;;12.77;32.07617;967.2335;;;;
2020/02/22 12:35:47;;;;;;;4.2;1;;;;;;;13.01;32.15234;967.1149;;;;
2020/02/22 12:38:12;;;;;;;5.6;1.3;;;;;;;12.93;31.3252;967.1448;;;;
2020/02/22 12:40:37;;;;;;;5.6;1.2;;;;;;;12.82;31.69824;967.0572;;;;
2020/02/22 12:43:02;;;;;;;6;1.3;;;;;;;12.9;31.58887;967.1426;;;;
2020/02/22 12:45:27;;;;;;;6.5;1.2;;;;;;;13.07;31.55469;967.1886;;;;
2020/02/22 12:47:53;;;;;;;8.2;1.3;;;;;;;13.01;31.77051;967.1861;;;;
2020/02/22 12:50:18;;;;;;;3.6;1.2;;;;;;;13.02;32.2334;967.133;;;;
2020/02/22 12:52:43;;;;;;;3.4;1.2;;;;;;;13.08;32.32031;967.248;;;;
2020/02/22 12:55:08;;;;;;;2.4;1.1;;;;;;;12.98;32.9375;967.1691;;;;
2020/02/22 12:57:34;;;;;;;4.5;1.2;;;;;;;13.06;33.13965;966.9397;;;;
2020/02/22 12:59:59;;;;;;;3.7;1.5;;;;;;;13.24;33.37402;966.856;;;;
2020/02/22 13:02:25;;;;;;;3.7;1.3;;;;;;;13.3;33.16992;966.8329;;;;
2020/02/22 13:04:50;;;;;;;4.4;1.7;;;;;;;13.53;32.33008;966.7606;;;;
2020/02/22 13:07:15;;;;;;;5.6;1.3;;;;;;;13.56;32.04297;966.7079;;;;
2020/02/22 13:09:41;;;;;;;3.9;1.1;;;;;;;13.57;31.9502;966.6311;;;;
2020/02/22 13:12:06;;;;;;;2.9;1.1;;;;;;;13.6;32.3584;966.6169;;;;
2020/02/22 13:14:32;;;;;;;2.5;1;;;;;;;13.51;32.7334;966.6046;;;;
2020/02/22 13:16:57;;;;;;;3.5;1.1;;;;;;;13.54;33.03711;966.5961;;;;
2020/02/22 13:19:22;;;;;;;3.8;1.1;;;;;;;13.65;33.24316;966.5826;;;;
2020/02/22 13:21:47;;;;;;;4;1;;;;;;;13.8;33.18457;966.6607;;;;
2020/02/22 13:24:12;;;;;;;2.9;1.1;;;;;;;13.67;33.84766;966.5979;;;;
2020/02/22 13:26:38;;;;;;;3.4;1.1;;;;;;;13.77;34.20313;966.5792;;;;
2020/02/22 13:29:03;;;;;;;3.3;1.4;;;;;;;13.9;33.85352;966.5133;;;;
2020/02/22 13:31:28;;;;;;;3.3;0.8;;;;;;;14.07;32.70703;966.4269;;;;
2020/02/22 13:33:53;;;;;;;2.8;1;;;;;;;14.07;32.53223;966.3237;;;;
2020/02/22 13:36:18;;;;;;;4.2;1.1;;;;;;;14.1;31.47949;966.3192;;;;
2020/02/22 13:38:44;;;;;;;3.3;1.1;;;;;;;14.25;31.25781;966.366;;;;
2020/02/22 13:41:09;;;;;;;2.9;1;;;;;;;14.33;31.35645;966.3853;;;;
2020/02/22 13:43:35;;;;;;;2.3;0.9;;;;;;;14.49;30.81055;966.3334;;;;
2020/02/22 13:46:00;;;;;;;1.5;1;;;;;;;14.55;31.5459;966.3281;;;;
2020/02/22 13:48:26;;;;;;;3.1;1;;;;;;;14.43;31.18945;966.2817;;;;
2020/02/22 13:50:51;;;;;;;2.5;1;;;;;;;14.51;31.32227;966.2161;;;;
2020/02/22 13:53:17;;;;;;;1.6;0.9;;;;;;;14.64;31.15723;966.2555;;;;
2020/02/22 13:55:42;;;;;;;2.9;1;;;;;;;14.57;31.38574;966.2037;;;;
2020/02/22 13:58:07;;;;;;;4.3;1.3;;;;;;;14.78;31.46973;966.2321;;;;
2020/02/22 14:00:32;;;;;;;1.7;0.9;;;;;;;14.7;32.04492;966.1907;;;;
2020/02/22 14:02:58;;;;;;;1.8;0.9;;;;;;;14.82;31.7168;966.2949;;;;
2020/02/22 14:05:23;;;;;;;3.8;1.2;;;;;;;14.67;30.99805;966.1534;;;;
2020/02/22 14:07:49;;;;;;;2.1;1;;;;;;;14.65;30.83301;966.1284;;;;
2020/02/22 14:10:14;;;;;;;1.8;1.1;;;;;;;14.67;31.20605;966.0722;;;;
2020/02/22 14:12:40;;;;;;;2.7;1.1;;;;;;;14.59;31.22363;966.0432;;;;
2020/02/22 14:15:05;;;;;;;1.8;1;;;;;;;14.67;31.39258;966.1584;;;;
2020/02/22 14:17:31;;;;;;;1.4;0.9;;;;;;;14.61;32.08594;966.2502;;;;
2020/02/22 14:19:56;;;;;;;3;1;;;;;;;14.61;32.1084;966.3331;;;;
2020/02/22 14:22:22;;;;;;;2.1;1;;;;;;;14.71;31.81348;966.377;;;;
2020/02/22 14:24:47;;;;;;;2.4;0.9;;;;;;;14.68;32.03223;966.4406;;;;
2020/02/22 14:27:13;;;;;;;1.6;1;;;;;;;14.57;32.54688;966.4475;;;;
2020/02/22 14:29:38;;;;;;;2.7;1.2;;;;;;;14.67;32.6582;966.4659;;;;
2020/02/22 14:32:03;;;;;;;2.2;1.1;;;;;;;14.57;33.13965;966.3178;;;;
2020/02/22 14:34:28;;;;;;;2.7;1.1;;;;;;;14.57;33.62695;966.2514;;;;